Cleveland, Texas
Current Conditions -  °F | °C
As of 10:15 PM on Sunday 21 Dec 2014 (Local Time) from K6R3 Reporting Station
Overcast Overcast  
Wind Chill: 11°   Ceiling: 700
Heat Index: 11°   Visibility: 7mi
Dew Point: 11°   Wind: 6mph
Humidity: 94%   Direction: 170°S
Pressure: 29.91"   Gusts: NA
Location:  30.34°N, 95.09°W
Report Text: K6R3 220415Z AUTO 17005KT 7SM BKN007 OVC039 12/11 A2991 RMK AO2 T01150106
Loading
Personal Weather Stations






























Interactive Weather Map New forecast layout! Learn more

10-Day Weather Forecast

Advertisements
Track Severe Weather on mobile